Time;durP1;ratioP1;P1;durP2;ratioP2;P2;SDS_P1;SDS_P2;PMS_P1;PMS_P2;Temp;Humidity;BMP_temperature;BMP_pressure;BME280_temperature;BME280_humidity;BME280_pressure;Samples;Min_cycle;Max_cycle;Signal;HPM_P1;HPM_P2
2023/05/03 00:00:49;;;;;;;4.65;1.88;;;;;;;12.14;43.98;99858.88;4951408;28;20034;-94
2023/05/03 00:03:14;;;;;;;3.30;1.77;;;;;;;12.09;42.41;99848.84;4950172;28;20105;-94
2023/05/03 00:05:40;;;;;;;3.63;2.15;;;;;;;12.16;44.73;99850.50;4950346;28;20104;-95
2023/05/03 00:08:06;;;;;;;2.95;1.88;;;;;;;12.30;43.84;99857.78;4966348;28;20042;-94
2023/05/03 00:10:31;;;;;;;5.13;2.13;;;;;;;12.42;43.41;99864.84;4950553;28;20489;-95
2023/05/03 00:12:56;;;;;;;2.75;1.90;;;;;;;12.37;43.11;99844.06;4946552;28;20074;-94
2023/05/03 00:15:22;;;;;;;3.00;1.90;;;;;;;12.41;43.06;99847.84;4947680;28;20031;-94
2023/05/03 00:17:47;;;;;;;2.08;1.63;;;;;;;12.48;42.79;99853.78;4946328;28;20570;-95
2023/05/03 00:20:14;;;;;;;3.08;1.67;;;;;;;12.56;42.95;99859.75;4947802;28;20030;-94
2023/05/03 00:22:39;;;;;;;3.35;1.70;;;;;;;12.67;41.96;99866.75;4946648;28;20043;-95
2023/05/03 00:25:09;;;;;;;2.95;1.77;;;;;;;12.57;42.63;99859.44;4947504;28;20034;-94
2023/05/03 00:27:35;;;;;;;3.30;2.10;;;;;;;12.52;44.40;99852.16;4946848;28;20027;-95
2023/05/03 00:30:00;;;;;;;6.10;2.20;;;;;;;12.37;44.72;99862.13;4947474;28;20034;-95
2023/05/03 00:32:26;;;;;;;2.55;1.80;;;;;;;12.30;44.60;99852.41;4947304;28;20031;-94
2023/05/03 00:34:53;;;;;;;4.28;2.00;;;;;;;12.17;45.37;99844.03;4947213;28;20023;-93
2023/05/03 00:37:18;;;;;;;2.70;1.83;;;;;;;12.13;46.30;99851.84;4946746;28;20102;-94
2023/05/03 00:39:44;;;;;;;4.50;2.20;;;;;;;12.03;47.71;99854.50;4945785;28;20038;-95
2023/05/03 00:42:09;;;;;;;7.90;2.38;;;;;;;11.94;47.37;99848.81;4946774;28;20094;-94
2023/05/03 00:44:34;;;;;;;3.15;2.10;;;;;;;12.01;47.42;99853.97;4947110;28;20098;-93
2023/05/03 00:47:00;;;;;;;3.50;1.92;;;;;;;11.93;48.97;99850.72;4946563;28;20425;-93
2023/05/03 00:49:26;;;;;;;4.80;1.85;;;;;;;11.70;50.05;99840.34;4946941;28;20102;-92
2023/05/03 00:51:55;;;;;;;5.45;2.30;;;;;;;11.57;50.48;99847.03;4947575;28;20043;-93
2023/05/03 00:54:20;;;;;;;3.70;2.00;;;;;;;11.47;50.32;99847.00;4946668;28;20047;-95
2023/05/03 00:56:45;;;;;;;2.63;1.95;;;;;;;11.50;50.24;99830.31;4947225;28;20099;-94
2023/05/03 00:59:11;;;;;;;3.22;2.03;;;;;;;11.65;49.70;99840.34;4946493;28;20490;-94
2023/05/03 01:01:36;;;;;;;3.83;2.40;;;;;;;11.49;50.38;99826.78;4946327;28;20101;-94
2023/05/03 01:04:03;;;;;;;4.93;2.67;;;;;;;11.48;50.77;99838.66;4946625;28;20038;-95
2023/05/03 01:06:37;;;;;;;4.35;2.28;;;;;;;11.64;50.03;99844.09;4947000;28;20050;-95
2023/05/03 01:09:09;;;;;;;3.45;2.30;;;;;;;11.47;51.29;99847.00;4963159;28;20043;-93
2023/05/03 01:11:56;;;;;;;5.22;2.50;;;;;;;11.44;51.63;99853.72;4962208;28;20049;-94
2023/05/03 01:14:30;;;;;;;4.70;2.47;;;;;;;11.36;51.48;99845.34;4962424;28;20058;-93
2023/05/03 01:17:01;;;;;;;6.20;2.55;;;;;;;11.48;50.80;99838.66;4963609;28;20045;-94
2023/05/03 01:19:36;;;;;;;8.02;3.15;;;;;;;11.33;52.28;99836.69;4946099;28;20034;-94
2023/05/03 01:22:15;;;;;;;10.23;3.33;;;;;;;11.21;52.55;99824.50;4946957;28;20169;-94
2023/05/03 01:24:41;;;;;;;9.25;3.97;;;;;;;11.01;53.63;99825.97;4962416;28;20039;-94
2023/05/03 01:27:08;;;;;;;8.35;3.80;;;;;;;10.95;53.61;99832.41;4945601;28;20035;-94
2023/05/03 01:29:34;;;;;;;8.32;4.57;;;;;;;10.97;53.85;99834.84;4946308;28;20460;-95
2023/05/03 01:32:00;;;;;;;8.65;4.18;;;;;;;10.85;54.41;99830.47;4946831;28;20086;-94
2023/05/03 01:34:50;;;;;;;8.27;4.43;;;;;;;10.82;53.63;99830.19;4946450;28;20046;-94
2023/05/03 01:37:16;;;;;;;7.38;4.57;;;;;;;10.64;53.39;99807.94;4961358;28;20129;-94
2023/05/03 01:39:53;;;;;;;9.98;5.00;;;;;;;10.73;53.78;99827.16;4946663;28;20495;-94
2023/05/03 01:42:19;;;;;;;7.38;4.50;;;;;;;10.70;52.83;99815.00;4961875;28;20093;-95
2023/05/03 01:44:44;;;;;;;10.80;4.70;;;;;;;10.85;52.83;99829.66;4946867;28;20038;-94
2023/05/03 01:47:10;;;;;;;7.88;4.60;;;;;;;10.71;53.08;99799.69;4945123;28;20043;-95
2023/05/03 01:49:36;;;;;;;9.50;5.75;;;;;;;10.69;52.78;99812.59;4961905;28;20039;-94
2023/05/03 01:52:01;;;;;;;7.63;4.57;;;;;;;10.81;52.34;99813.22;4945809;28;20102;-95
2023/05/03 01:54:27;;;;;;;11.68;5.18;;;;;;;10.86;53.07;99823.19;4946506;28;20053;-94
2023/05/03 01:56:52;;;;;;;12.25;5.40;;;;;;;10.77;52.09;99819.34;4946461;28;20103;-94
2023/05/03 01:59:18;;;;;;;8.35;5.00;;;;;;;10.77;52.30;99822.88;4948664;28;20035;-93
2023/05/03 02:01:43;;;;;;;8.85;5.38;;;;;;;10.78;52.87;99821.00;4949260;28;20014;-94
2023/05/03 02:04:10;;;;;;;10.73;4.93;;;;;;;10.80;52.73;99813.47;4949927;28;20039;-94
2023/05/03 02:06:35;;;;;;;9.25;4.90;;;;;;;10.78;53.36;99811.03;4949268;28;20043;-94
2023/05/03 02:09:00;;;;;;;7.05;4.43;;;;;;;10.77;54.30;99808.56;4948299;28;20034;-94
2023/05/03 02:11:26;;;;;;;11.60;4.90;;;;;;;10.80;54.45;99819.66;4949264;28;20046;-94
2023/05/03 02:13:51;;;;;;;8.43;4.32;;;;;;;10.67;55.00;99809.34;4948211;28;20510;-94
2023/05/03 02:16:17;;;;;;;11.30;4.15;;;;;;;10.68;55.64;99814.44;4949662;28;20382;-94
2023/05/03 02:18:43;;;;;;;10.25;4.50;;;;;;;10.64;54.84;99799.06;4949477;28;20557;-94
2023/05/03 02:21:09;;;;;;;8.77;4.93;;;;;;;10.62;54.81;99814.66;4949164;28;20035;-94
2023/05/03 02:23:34;;;;;;;14.38;4.80;;;;;;;10.50;55.38;99807.59;4949246;28;20019;-94
2023/05/03 02:26:00;;;;;;;8.07;5.13;;;;;;;10.54;55.21;99807.88;4949126;28;20063;-94
2023/05/03 02:28:25;;;;;;;8.43;5.00;;;;;;;10.62;55.45;99812.78;4947499;28;20031;-95
2023/05/03 02:30:51;;;;;;;6.57;4.25;;;;;;;10.64;55.35;99812.53;4948577;28;20077;-95
2023/05/03 02:33:17;;;;;;;6.13;3.92;;;;;;;10.48;54.98;99800.84;4948642;28;20491;-94
2023/05/03 02:35:42;;;;;;;5.68;3.65;;;;;;;10.52;55.20;99793.84;4948707;28;20042;-94
2023/05/03 02:38:07;;;;;;;5.47;3.42;;;;;;;10.46;55.39;99787.63;4948208;28;20038;-94
2023/05/03 02:40:33;;;;;;;7.60;3.80;;;;;;;10.49;55.78;99797.88;4949111;28;20023;-94
2023/05/03 02:42:59;;;;;;;6.00;3.50;;;;;;;10.40;55.61;99790.56;4948551;28;20041;-94
2023/05/03 02:45:25;;;;;;;8.05;3.88;;;;;;;10.41;55.35;99790.28;4948335;28;20037;-95
2023/05/03 02:47:50;;;;;;;5.47;4.00;;;;;;;10.43;55.81;99779.25;4947362;28;20034;-95
2023/05/03 02:50:15;;;;;;;8.32;4.18;;;;;;;10.43;56.33;99779.25;4948624;28;20035;-94
2023/05/03 02:52:41;;;;;;;6.30;4.07;;;;;;;10.31;56.83;99771.34;4947855;28;20122;-94
2023/05/03 02:55:08;;;;;;;6.65;3.75;;;;;;;10.44;56.35;99779.00;4933130;28;20063;-94
2023/05/03 02:57:33;;;;;;;4.07;2.97;;;;;;;10.47;54.34;99786.56;4947748;28;20035;-94
2023/05/03 02:59:59;;;;;;;7.25;3.53;;;;;;;10.49;54.56;99780.91;4965690;28;20034;-95
2023/05/03 03:02:25;;;;;;;6.07;3.00;;;;;;;10.47;54.71;99775.78;4948638;28;20070;-94
2023/05/03 03:04:50;;;;;;;5.30;3.15;;;;;;;10.39;54.49;99780.84;4947783;28;20061;-94
2023/05/03 03:07:15;;;;;;;7.28;3.20;;;;;;;10.48;54.17;99790.88;4947711;28;20103;-94
2023/05/03 03:09:41;;;;;;;6.03;3.00;;;;;;;10.66;53.21;99789.66;4945231;28;20043;-95
2023/05/03 03:12:06;;;;;;;6.40;3.25;;;;;;;10.77;54.00;99790.56;4964373;28;20050;-94
2023/05/03 03:14:32;;;;;;;5.82;3.20;;;;;;;10.78;54.86;99794.88;4947777;28;20058;-95
2023/05/03 03:16:57;;;;;;;8.43;4.03;;;;;;;10.75;55.39;99786.47;4964337;28;20034;-95
2023/05/03 03:19:23;;;;;;;8.23;3.35;;;;;;;10.70;55.54;99792.66;4948074;28;20042;-95
2023/05/03 03:21:48;;;;;;;6.93;3.42;;;;;;;10.58;55.16;99790.13;4947583;28;20045;-94
2023/05/03 03:24:14;;;;;;;7.78;2.80;;;;;;;10.61;55.08;99791.53;4946972;28;20041;-95
2023/05/03 03:26:40;;;;;;;5.78;3.10;;;;;;;10.90;54.47;99803.56;4947410;28;20484;-94
2023/05/03 03:29:05;;;;;;;5.97;3.00;;;;;;;10.83;54.36;99786.81;4948198;28;20054;-94
2023/05/03 03:31:31;;;;;;;8.35;3.15;;;;;;;10.77;55.68;99787.88;4947747;28;20490;-95
2023/05/03 03:33:56;;;;;;;3.85;2.95;;;;;;;10.82;55.92;99803.25;4964502;28;20027;-95
2023/05/03 03:36:22;;;;;;;9.35;3.78;;;;;;;10.78;56.20;99799.44;4948135;28;20049;-95
2023/05/03 03:38:47;;;;;;;7.25;3.53;;;;;;;10.79;56.12;99806.44;4948159;28;20509;-94
2023/05/03 03:41:13;;;;;;;8.40;3.40;;;;;;;10.74;56.89;99801.84;4947775;28;20031;-93
2023/05/03 03:43:38;;;;;;;5.85;3.10;;;;;;;10.86;55.86;99789.00;4945505;28;20047;-95
2023/05/03 03:46:04;;;;;;;8.23;3.13;;;;;;;10.83;56.05;99788.69;4947248;28;20190;-94
2023/05/03 03:48:29;;;;;;;8.00;3.45;;;;;;;10.79;56.00;99782.19;4964735;28;20034;-94
2023/05/03 03:50:55;;;;;;;9.68;4.50;;;;;;;10.87;56.69;99790.63;4947686;28;20406;-95
2023/05/03 03:53:20;;;;;;;13.52;3.85;;;;;;;11.13;55.80;99791.56;4947101;28;20018;-95
2023/05/03 03:55:46;;;;;;;8.43;4.43;;;;;;;11.07;55.75;99773.75;4947413;28;20110;-95
2023/05/03 03:58:11;;;;;;;10.45;4.13;;;;;;;11.18;55.25;99789.97;4949267;28;20037;-95
2023/05/03 04:00:37;;;;;;;11.75;5.35;;;;;;;11.06;56.75;99787.47;4949421;28;20034;-96
2023/05/03 04:03:03;;;;;;;13.00;4.05;;;;;;;11.19;55.80;99786.22;4949347;28;20038;-96
2023/05/03 04:05:29;;;;;;;11.27;3.83;;;;;;;11.23;55.36;99793.50;4948355;28;20129;-95
2023/05/03 04:07:54;;;;;;;5.03;3.17;;;;;;;11.19;55.14;99787.03;4947757;28;20031;-95
2023/05/03 04:10:20;;;;;;;11.35;4.93;;;;;;;11.27;55.58;99804.59;4947620;28;20039;-95
2023/05/03 04:12:47;;;;;;;11.18;5.25;;;;;;;11.20;55.77;99796.72;4949005;28;20054;-96
2023/05/03 04:15:13;;;;;;;10.20;4.70;;;;;;;11.39;54.93;99794.38;4947550;28;20520;-95
2023/05/03 04:17:38;;;;;;;14.18;3.92;;;;;;;11.64;54.49;99806.34;4947676;28;20031;-95
2023/05/03 04:20:09;;;;;;;16.95;4.75;;;;;;;11.80;54.17;99808.00;4948351;28;20513;-95
2023/05/03 04:22:35;;;;;;;11.13;4.45;;;;;;;11.78;54.90;99806.66;4949008;28;20038;-96
2023/05/03 04:25:01;;;;;;;13.90;4.40;;;;;;;11.83;54.86;99804.78;4948872;28;20042;-93
2023/05/03 04:27:26;;;;;;;10.15;4.38;;;;;;;11.98;54.78;99822.13;4948974;28;20030;-95
2023/05/03 04:29:52;;;;;;;10.23;4.50;;;;;;;11.98;54.68;99822.94;4949260;28;20034;-95
2023/05/03 04:32:22;;;;;;;10.38;4.53;;;;;;;12.10;54.21;99822.69;4947966;28;20126;-95
2023/05/03 04:34:50;;;;;;;7.32;3.53;;;;;;;12.16;54.26;99832.44;4951044;28;20049;-96
2023/05/03 04:37:16;;;;;;;12.05;4.55;;;;;;;12.15;53.98;99819.19;4948357;28;20078;-96
2023/05/03 04:39:42;;;;;;;15.30;3.80;;;;;;;12.40;53.03;99818.41;4949290;28;20035;-95
2023/05/03 04:42:07;;;;;;;7.85;4.07;;;;;;;12.45;53.00;99815.69;4948961;28;20058;-96
2023/05/03 04:44:33;;;;;;;10.52;4.43;;;;;;;12.45;54.90;99821.09;4954558;29;20050;-96
2023/05/03 04:46:58;;;;;;;13.05;4.72;;;;;;;12.70;53.81;99826.50;4931230;29;20042;-96
2023/05/03 04:49:36;;;;;;;12.73;6.10;;;;;;;12.82;53.12;99828.09;4929723;29;20063;-95
2023/05/03 04:52:01;;;;;;;14.95;6.93;;;;;;;12.82;53.33;99815.41;4931086;29;20471;-96
2023/05/03 04:54:27;;;;;;;11.02;5.07;;;;;;;12.87;55.30;99828.13;4930384;29;20039;-95
2023/05/03 04:56:53;;;;;;;17.33;4.80;;;;;;;13.01;53.69;99821.06;4914222;29;20079;-96
2023/05/03 04:59:19;;;;;;;9.75;4.55;;;;;;;13.18;53.39;99846.97;4911811;29;20103;-95
2023/05/03 05:01:45;;;;;;;13.00;4.78;;;;;;;13.22;53.26;99829.09;4911883;29;20035;-96
2023/05/03 05:04:11;;;;;;;11.45;4.55;;;;;;;13.36;53.43;99832.88;4944912;29;20035;-93
2023/05/03 05:06:50;;;;;;;17.15;4.82;;;;;;;13.61;52.65;99833.88;4928026;29;20047;-96
2023/05/03 05:09:26;;;;;;;10.50;5.43;;;;;;;13.82;52.11;99845.41;4947183;29;20042;-96
2023/05/03 05:11:52;;;;;;;16.50;5.40;;;;;;;13.84;51.90;99833.25;4933558;29;20130;-96
2023/05/03 05:14:18;;;;;;;21.63;7.03;;;;;;;13.87;54.03;99840.00;4949672;28;20047;-96
2023/05/03 05:16:43;;;;;;;280.23;112.03;;;;;;;13.94;53.37;99830.50;4942350;28;20117;-94
2023/05/03 05:19:12;;;;;;;28.45;9.27;;;;;;;14.15;52.69;99843.88;4930026;28;20035;-96
2023/05/03 05:21:38;;;;;;;8.23;4.72;;;;;;;14.23;51.95;99837.06;4948480;28;20043;-96
2023/05/03 05:24:04;;;;;;;18.42;5.53;;;;;;;14.32;51.74;99832.69;4948987;28;20042;-91
2023/05/03 05:26:29;;;;;;;33.25;9.10;;;;;;;14.29;52.21;99844.88;4942584;28;20117;-95
2023/05/03 05:28:55;;;;;;;10.98;5.00;;;;;;;14.03;52.36;99843.41;4931331;28;20039;-96
2023/05/03 05:31:20;;;;;;;7.57;4.68;;;;;;;14.31;52.48;99858.94;4934605;28;20062;-93
2023/05/03 05:33:46;;;;;;;21.10;8.35;;;;;;;14.20;52.06;99830.31;4970784;28;20042;-96
2023/05/03 05:36:13;;;;;;;11.77;5.18;;;;;;;14.13;52.54;99827.94;4954274;28;20062;-92
2023/05/03 05:38:39;;;;;;;11.15;4.47;;;;;;;14.27;52.34;99857.88;4953569;28;20058;-94
2023/05/03 05:41:09;;;;;;;8.57;5.10;;;;;;;14.36;52.14;99836.44;4953044;28;20034;-96
2023/05/03 05:43:34;;;;;;;13.90;4.43;;;;;;;14.51;52.08;99836.31;4971142;28;20023;-95
2023/05/03 05:46:03;;;;;;;8.45;4.00;;;;;;;14.63;52.13;99844.13;4954423;28;20045;-92
2023/05/03 05:48:30;;;;;;;9.82;4.07;;;;;;;14.89;50.61;99849.31;4971494;28;20046;-92
2023/05/03 05:51:00;;;;;;;15.93;4.32;;;;;;;15.10;47.99;99847.22;4956847;28;20031;-93
2023/05/03 05:53:26;;;;;;;8.85;5.00;;;;;;;15.16;49.43;99837.94;4979541;28;20106;-95
2023/05/03 05:55:51;;;;;;;17.30;5.38;;;;;;;15.29;49.01;99866.28;4957751;28;20046;-95
2023/05/03 05:58:17;;;;;;;16.02;5.60;;;;;;;15.31;48.91;99874.94;4954661;28;20035;-92
2023/05/03 06:00:54;;;;;;;18.05;5.20;;;;;;;15.27;48.43;99865.75;4949677;28;20493;-91
2023/05/03 06:03:20;;;;;;;16.63;5.07;;;;;;;15.33;48.33;99876.25;4969398;28;20405;-93
2023/05/03 06:05:45;;;;;;;14.60;4.55;;;;;;;15.53;46.16;99907.00;4954341;28;20027;-94
2023/05/03 06:08:11;;;;;;;8.80;4.97;;;;;;;15.26;47.49;99889.38;4945086;28;20038;-93
2023/05/03 06:10:37;;;;;;;10.75;4.38;;;;;;;15.46;49.00;99903.81;4953529;28;20370;-92
2023/05/03 06:13:03;;;;;;;11.68;4.50;;;;;;;15.63;48.85;99909.63;4935115;28;20047;-89
2023/05/03 06:15:28;;;;;;;14.20;4.15;;;;;;;15.61;49.07;99917.22;4948170;29;20046;-93
2023/05/03 06:17:54;;;;;;;7.70;3.33;;;;;;;15.72;43.19;99912.53;4934572;29;20546;-93
2023/05/03 06:20:23;;;;;;;7.82;3.30;;;;;;;15.73;40.99;99901.38;4932403;29;20059;-90
2023/05/03 06:22:49;;;;;;;6.70;2.78;;;;;;;15.77;39.67;99893.44;4948084;28;20031;-90
2023/05/03 06:25:24;;;;;;;12.57;6.15;;;;;;;16.00;40.52;99916.28;4931155;29;20062;-89
2023/05/03 06:27:55;;;;;;;5.05;2.92;;;;;;;15.93;42.80;99913.88;4929251;29;20046;-95
2023/05/03 06:30:22;;;;;;;7.20;3.33;;;;;;;16.15;40.56;99901.69;4932758;29;20047;-91
2023/05/03 06:32:48;;;;;;;10.35;3.10;;;;;;;16.12;40.13;99877.78;4932283;29;20051;-89
2023/05/03 06:35:18;;;;;;;19.92;6.78;;;;;;;16.38;34.96;99891.84;4949280;29;20500;-92
2023/05/03 06:37:44;;;;;;;6.00;2.85;;;;;;;16.57;34.56;99902.69;4946506;29;20110;-92
2023/05/03 06:40:10;;;;;;;8.95;2.60;;;;;;;16.46;35.48;99899.31;4925897;29;20118;-90
2023/05/03 06:42:45;;;;;;;7.13;2.60;;;;;;;16.85;35.57;99930.84;4932703;29;20039;-89
2023/05/03 06:45:11;;;;;;;6.25;1.98;;;;;;;16.83;35.45;99902.31;4964771;29;20058;-91
2023/05/03 06:47:41;;;;;;;6.25;2.13;;;;;;;16.93;35.33;99908.41;4921524;29;20039;-95
2023/05/03 06:50:10;;;;;;;15.48;2.42;;;;;;;17.24;34.73;99931.56;4953757;28;20063;-94
2023/05/03 06:52:35;;;;;;;4.15;1.95;;;;;;;17.21;35.00;99915.84;4938049;29;20054;-91
2023/05/03 06:55:01;;;;;;;3.67;2.90;;;;;;;17.23;35.12;99914.44;4931180;29;20039;-91
2023/05/03 06:57:26;;;;;;;3.50;2.25;;;;;;;17.41;34.43;99931.81;4921747;29;20102;-89
2023/05/03 06:59:53;;;;;;;4.60;2.95;;;;;;;17.34;34.34;99915.84;4922750;29;20065;-93
2023/05/03 07:02:21;;;;;;;9.18;3.88;;;;;;;17.42;34.60;99936.13;4943228;29;20055;-95
2023/05/03 07:04:48;;;;;;;5.53;2.20;;;;;;;17.32;33.92;99930.88;4919457;29;20050;-96
2023/05/03 07:07:15;;;;;;;5.07;2.13;;;;;;;17.34;34.55;99934.09;4949864;29;20414;-96
2023/05/03 07:09:41;;;;;;;2.70;1.98;;;;;;;17.39;34.92;99936.75;4932783;29;20063;-95
2023/05/03 07:12:57;;;;;;;6.22;2.20;;;;;;;17.32;36.90;99960.81;4931418;29;20032;-95
2023/05/03 07:15:32;;;;;;;6.60;4.05;;;;;;;17.20;36.23;99950.38;4954507;28;20554;-89
2023/05/03 07:18:16;;;;;;;3.75;2.50;;;;;;;17.36;35.05;99965.34;4927348;29;20681;-90
2023/05/03 07:20:41;;;;;;;94.88;53.90;;;;;;;17.15;36.57;99943.13;4930427;28;20466;-88
2023/05/03 07:23:46;;;;;;;4.70;3.00;;;;;;;17.30;36.44;99958.38;4912625;29;20106;-88
2023/05/03 07:26:11;;;;;;;4.68;2.30;;;;;;;16.99;36.45;99913.75;4946965;28;20035;-89
2023/05/03 07:28:37;;;;;;;4.25;2.22;;;;;;;17.16;35.88;99933.03;4935465;29;20040;-90
2023/05/03 07:31:06;;;;;;;3.70;2.17;;;;;;;17.09;36.75;99930.72;4941114;29;20063;-89
2023/05/03 07:33:38;;;;;;;7.38;3.03;;;;;;;16.99;38.62;99927.38;4929335;29;20041;-94
2023/05/03 07:36:04;;;;;;;9.37;2.47;;;;;;;16.98;37.67;99896.63;4927284;29;20039;-90
2023/05/03 07:38:33;;;;;;;4.45;2.10;;;;;;;17.17;35.23;99918.34;4932176;29;20031;-92
2023/05/03 07:41:02;;;;;;;5.38;2.17;;;;;;;17.38;35.64;99914.13;4931426;29;20417;-86
2023/05/03 07:47:44;;;;;;;7.72;2.75;;;;;;;17.67;35.07;99925.88;4962798;29;20102;-88
2023/05/03 07:50:10;;;;;;;6.22;2.67;;;;;;;17.74;34.56;99913.47;4942975;29;20051;-88
2023/05/03 07:53:07;;;;;;;5.32;3.20;;;;;;;17.70;34.53;99936.97;4945789;29;20182;-91
2023/05/03 07:55:48;;;;;;;11.02;6.85;;;;;;;17.41;35.49;99914.66;4942691;29;20446;-92
2023/05/03 07:58:21;;;;;;;7.00;4.25;;;;;;;17.39;34.92;99947.63;4928849;29;20027;-89
2023/05/03 08:01:41;;;;;;;8.98;3.42;;;;;;;17.29;36.25;99945.09;4928347;29;20053;-91
2023/05/03 08:04:23;;;;;;;6.78;3.35;;;;;;;17.07;36.54;99954.69;4943463;29;20039;-89
2023/05/03 08:07:27;;;;;;;4.90;2.97;;;;;;;17.23;35.86;99940.84;4929280;29;20037;-90
2023/05/03 08:10:21;;;;;;;6.50;3.70;;;;;;;17.22;36.83;99950.91;4942202;29;20038;-90
2023/05/03 08:13:05;;;;;;;6.53;2.30;;;;;;;17.10;35.81;99950.56;4945830;28;20031;-89
2023/05/03 08:15:59;;;;;;;6.43;3.95;;;;;;;17.31;34.86;99951.03;4927745;29;20048;-87
2023/05/03 08:18:31;;;;;;;5.82;2.88;;;;;;;17.03;35.28;99922.94;4943263;29;20126;-89
2023/05/03 08:20:57;;;;;;;;;;;;;;;16.95;36.37;99940.75;4921609;29;20072;-88
2023/05/03 08:23:40;;;;;;;5.35;2.92;;;;;;;17.04;36.64;99944.41;4925384;29;19914;-87
2023/05/03 08:26:08;;;;;;;3.70;2.08;;;;;;;16.87;35.92;99935.97;4940088;29;20035;-87
2023/05/03 08:28:34;;;;;;;4.22;1.95;;;;;;;16.90;35.64;99936.19;4910583;28;20501;-89
2023/05/03 08:31:02;;;;;;;4.53;2.67;;;;;;;17.04;35.62;99933.53;4907550;29;20043;-89
2023/05/03 08:33:34;;;;;;;10.10;4.07;;;;;;;17.16;35.64;99925.72;4919767;29;20044;-90
2023/05/03 08:36:00;;;;;;;3.72;2.40;;;;;;;17.33;34.88;99916.16;4929719;28;20032;-89
2023/05/03 08:38:26;;;;;;;4.45;2.20;;;;;;;17.37;35.47;99889.97;4908406;29;20043;-89
2023/05/03 08:40:54;;;;;;;6.55;3.50;;;;;;;17.75;35.62;99908.81;4905622;29;20040;-88
2023/05/03 08:43:20;;;;;;;6.20;3.75;;;;;;;17.81;35.23;99904.09;4916754;29;20099;-90
2023/05/03 08:46:13;;;;;;;26.17;14.80;;;;;;;18.14;34.94;99919.22;4914108;29;20058;-87
2023/05/03 08:48:38;;;;;;;2.95;2.08;;;;;;;18.12;33.78;99901.56;4929735;29;20036;-88
2023/05/03 08:51:07;;;;;;;7.38;3.17;;;;;;;18.38;34.31;99913.50;4920471;29;20043;-91
2023/05/03 08:53:35;;;;;;;9.48;4.28;;;;;;;18.31;34.41;99885.06;4928898;29;20461;-91
2023/05/03 08:56:05;;;;;;;7.10;2.45;;;;;;;18.69;33.77;99898.34;4910394;29;20043;-92
2023/05/03 08:58:34;;;;;;;4.55;2.40;;;;;;;18.96;32.98;99886.53;4907961;29;20414;-90
2023/05/03 09:01:31;;;;;;;16.45;8.57;;;;;;;19.09;33.57;99898.47;4905019;29;20050;-87
2023/05/03 09:03:57;;;;;;;28.27;12.60;;;;;;;19.35;32.52;99882.25;4928305;29;20043;-88
2023/05/03 09:06:55;;;;;;;6.90;2.72;;;;;;;19.55;30.93;99878.94;4915176;28;20042;-90
2023/05/03 09:09:12;;;;;;;7.78;2.90;;;;;;;19.67;30.52;99864.69;4938623;29;20035;-88
2023/05/03 09:11:38;;;;;;;4.43;1.50;;;;;;;19.92;29.26;99885.03;4916185;29;20125;-88
2023/05/03 09:14:14;;;;;;;3.60;2.00;;;;;;;19.72;29.05;99874.69;4921323;28;20055;-90
2023/05/03 09:16:43;;;;;;;3.95;2.40;;;;;;;20.10;28.63;99882.31;4934268;28;20042;-89
2023/05/03 09:19:10;;;;;;;8.20;3.63;;;;;;;20.25;29.21;99864.63;4934656;28;20395;-91
2023/05/03 09:22:23;;;;;;;3.78;2.83;;;;;;;20.35;28.41;99873.31;4935959;28;20034;-89
2023/05/03 09:25:03;;;;;;;3.42;2.03;;;;;;;20.48;27.99;99868.84;4963122;28;20050;-88
2023/05/03 09:27:29;;;;;;;7.40;3.00;;;;;;;20.45;27.96;99838.59;4954805;28;20042;-89
2023/05/03 09:29:54;;;;;;;4.07;2.20;;;;;;;20.45;27.75;99853.06;4946206;28;21484;-87
2023/05/03 09:32:24;;;;;;;7.28;1.60;;;;;;;20.56;27.41;99853.53;4931493;28;20046;-88
2023/05/03 09:34:49;;;;;;;3.03;1.67;;;;;;;20.34;28.13;99843.59;4936703;28;20081;-89
2023/05/03 09:37:15;;;;;;;4.47;1.90;;;;;;;20.63;27.75;99842.94;4939453;28;20107;-89
2023/05/03 09:39:44;;;;;;;4.82;1.75;;;;;;;20.64;27.98;99843.75;4935449;28;20027;-89
2023/05/03 09:42:45;;;;;;;4.68;1.90;;;;;;;20.83;27.71;99849.66;4933360;28;20039;-88
2023/05/03 09:45:10;;;;;;;2.38;1.67;;;;;;;21.11;26.22;99839.13;4939422;28;20038;-88
2023/05/03 09:47:52;;;;;;;3.83;1.77;;;;;;;21.23;26.91;99819.25;4931335;28;20102;-89
2023/05/03 09:50:23;;;;;;;3.58;1.52;;;;;;;21.43;26.97;99836.91;4933609;28;20038;-87
2023/05/03 09:52:50;;;;;;;4.40;1.98;;;;;;;21.21;27.29;99805.09;4951633;28;20043;-88
2023/05/03 09:55:16;;;;;;;3.28;2.30;;;;;;;21.23;27.92;99802.84;4944311;28;20038;-87
2023/05/03 09:57:47;;;;;;;3.15;1.70;;;;;;;21.04;26.82;99816.09;4933602;28;20034;-88
2023/05/03 10:00:15;;;;;;;5.70;2.38;;;;;;;20.93;27.45;99801.97;4933948;28;20090;-88
2023/05/03 10:02:44;;;;;;;2.72;1.48;;;;;;;20.91;26.94;99820.66;4932108;28;20038;-87
2023/05/03 10:05:10;;;;;;;4.13;2.00;;;;;;;20.85;26.99;99789.13;4925494;28;20054;-89
2023/05/03 10:07:39;;;;;;;9.02;1.90;;;;;;;20.73;27.01;99798.81;4933768;28;20038;-87
2023/05/03 10:10:07;;;;;;;28.05;3.17;;;;;;;20.61;26.89;99786.91;4943865;29;20067;-90
2023/05/03 10:12:37;;;;;;;3.42;1.40;;;;;;;20.83;26.78;99794.13;4948006;29;20037;-91
2023/05/03 10:15:17;;;;;;;3.80;1.60;;;;;;;21.05;26.02;99799.34;4967216;29;20198;-93
2023/05/03 10:17:46;;;;;;;3.22;1.80;;;;;;;21.02;25.65;99786.31;4951703;29;20094;-93
2023/05/03 10:20:32;;;;;;;4.95;1.67;;;;;;;21.07;26.15;99788.88;4950393;29;20039;-95
2023/05/03 10:23:03;;;;;;;2.78;2.15;;;;;;;21.35;26.77;99805.69;4935160;29;20031;-95
2023/05/03 10:25:32;;;;;;;;;;;;;;;21.40;26.12;99797.25;4966546;29;20035;-94
2023/05/03 10:28:07;;;;;;;5.25;2.10;;;;;;;21.17;26.85;99776.75;4949647;29;19914;-95
2023/05/03 10:30:39;;;;;;;3.35;1.83;;;;;;;21.37;25.83;99792.44;4948100;29;20091;-95
2023/05/03 10:33:18;;;;;;;5.63;2.42;;;;;;;21.36;25.70;99796.31;4947359;29;20035;-96
2023/05/03 10:35:51;;;;;;;5.28;1.67;;;;;;;21.18;26.54;99770.94;4964627;29;20032;-94
2023/05/03 10:38:19;;;;;;;8.30;1.90;;;;;;;21.38;25.93;99796.78;4933865;29;20027;-94
2023/05/03 10:40:45;;;;;;;3.00;1.40;;;;;;;21.41;26.08;99789.84;4949463;29;20031;-95
2023/05/03 10:43:32;;;;;;;3.40;2.30;;;;;;;21.44;26.74;99796.63;4951189;29;20038;-95
2023/05/03 10:46:01;;;;;;;2.17;1.48;;;;;;;21.25;26.61;99788.78;4965883;29;20039;-95
2023/05/03 10:48:27;;;;;;;3.33;1.67;;;;;;;21.29;26.88;99782.34;4932568;29;20027;-93
2023/05/03 10:50:56;;;;;;;4.10;2.15;;;;;;;21.10;26.76;99769.03;4932530;29;20039;-94
2023/05/03 10:53:43;;;;;;;9.10;1.75;;;;;;;21.10;27.13;99766.28;4962632;29;20110;-95
2023/05/03 10:56:10;;;;;;;5.63;1.45;;;;;;;21.44;26.98;99782.94;4931706;29;20031;-94
2023/05/03 10:58:55;;;;;;;4.63;1.90;;;;;;;21.42;27.19;99752.31;4931903;29;20032;-93
2023/05/03 11:01:21;;;;;;;3.28;1.40;;;;;;;21.58;26.80;99765.13;4944721;28;20102;-93
2023/05/03 11:04:07;;;;;;;3.00;1.60;;;;;;;21.90;26.92;99783.91;4941917;29;20066;-95
2023/05/03 11:06:37;;;;;;;5.50;1.75;;;;;;;21.83;26.04;99778.97;4943688;28;20054;-95
2023/05/03 11:09:08;;;;;;;3.00;1.52;;;;;;;21.96;26.40;99786.13;4963763;28;20042;-92
2023/05/03 11:11:36;;;;;;;;;;;;;;;21.99;25.92;99785.44;4959083;28;20485;-94
2023/05/03 11:14:02;;;;;;;2.45;1.48;;;;;;;21.84;26.36;99766.06;4950510;29;19918;-95
2023/05/03 11:16:28;;;;;;;6.40;2.33;;;;;;;21.93;26.48;99767.59;4934253;29;20035;-95
2023/05/03 11:18:53;;;;;;;2.78;1.88;;;;;;;21.99;26.07;99759.97;4955039;29;20026;-95
2023/05/03 11:21:20;;;;;;;3.22;1.90;;;;;;;22.04;25.98;99773.47;4938072;29;20031;-95
2023/05/03 11:23:45;;;;;;;3.72;2.15;;;;;;;22.19;25.94;99774.81;4935862;29;20104;-95
2023/05/03 11:26:15;;;;;;;3.55;1.80;;;;;;;22.03;25.91;99755.41;4949158;28;20039;-95
2023/05/03 11:28:44;;;;;;;3.10;1.73;;;;;;;21.99;26.63;99754.47;4950684;29;20063;-95
2023/05/03 11:31:11;;;;;;;2.67;1.45;;;;;;;22.11;26.40;99760.03;4952386;29;20027;-93
2023/05/03 11:33:38;;;;;;;3.22;1.52;;;;;;;22.16;27.02;99759.00;4946973;29;20055;-94
2023/05/03 11:36:08;;;;;;;14.73;7.32;;;;;;;22.36;27.05;99769.16;4942808;29;20058;-96
2023/05/03 11:38:46;;;;;;;3.88;1.75;;;;;;;22.47;26.37;99755.81;4940528;29;20054;-96
2023/05/03 11:41:17;;;;;;;4.03;1.80;;;;;;;22.60;26.55;99748.44;4933094;29;20043;-95
2023/05/03 11:43:53;;;;;;;2.60;1.52;;;;;;;22.72;25.94;99739.41;4947798;28;20024;-95
2023/05/03 11:46:25;;;;;;;3.38;2.05;;;;;;;22.94;25.93;99752.72;4963292;28;20057;-91